map of VXC home
VXC - Airport
Location
City:  Lichinga, Niassa, Mozambique
Name:Lichinga Airport
ICAO:FQLC
IATA:VXC

Details
Type:Airport (Aerodrome, Airfield)
Use:Public/Civil
Latitude:1316'26"S (-13.273985)
Longitude:3515'59"E (35.266262)
Datum:WGS 1984
Elevation:4505 ft (1373 m)
Variation:5.23W (WMM2015 magnetic declination)
-0.01 annual change
Runways:1
Longest:8300 × 148 ft (2530 × 45 m), paved

Time
Time Zone:UTC+2
Local Time:

Weather
METAR:FQLC 151300Z 07007KT 9999 BKN016 28/13 Q1019 RMK TX29 9 TM14 8

Related Locations
Nearby:
Farthest:ITO: 11628 mi / 18714 km
Hilo [Hilo Intl], Hawaii, HI, US

Find:

   beyond  
but within

Other Information
Maps:
NOTAMs:
Links:
Sources:

  
  • flag of Mozambique
  

Sectional Chart

Flight Planning
at skyvector.com

Satellite Image

Google Maps Satellite view

 

Copyright © 2004-2018 Karl L. Swartz. All rights reserved.
The Great Circle Mapper name and logo are trademarks of the Great Circle Mapper.
All other trademarks mentioned herein belong to their respective owners.
Please see credits for attibutions and further copyright information.

  Follow gcmap on Facebook Follow gcmap on Twitter Follow gcmap on Google+ GCmap on LinkedIn

hCard Microformat

Geo Microformat